Time;durP1;ratioP1;P1;durP2;ratioP2;P2;SDS_P1;SDS_P2;PMS_P1;PMS_P2;Temp;Humidity;BMP_temperature;BMP_pressure;BME280_temperature;BME280_humidity;BME280_pressure;Samples;Min_cycle;Max_cycle;Signal;HPM_P1;HPM_P2
2022/01/16 00:05:09;;;;;;;92.43;33.35;;;;;;;2.19;100.00;102387.88;5108323;27;20055;-76
2022/01/16 00:07:37;;;;;;;105.05;36.60;;;;;;;2.21;100.00;102370.41;5109347;27;20043;-75
2022/01/16 00:10:06;;;;;;;111.78;38.55;;;;;;;2.24;100.00;102380.13;5107730;27;20049;-76
2022/01/16 00:12:36;;;;;;;103.28;37.05;;;;;;;2.27;100.00;102385.47;5106347;27;20403;-75
2022/01/16 00:15:04;;;;;;;100.47;36.55;;;;;;;2.29;100.00;102388.16;5106572;27;20053;-75
2022/01/16 00:17:35;;;;;;;105.75;36.60;;;;;;;2.30;100.00;102389.91;5107914;27;20589;-75
2022/01/16 00:20:06;;;;;;;111.43;36.72;;;;;;;2.35;100.00;102386.56;5109137;27;20050;-75
2022/01/16 00:22:38;;;;;;;124.15;41.30;;;;;;;2.34;100.00;102371.59;5107052;27;20130;-75
2022/01/16 00:25:06;;;;;;;95.65;36.58;;;;;;;2.34;100.00;102370.72;5108528;27;20301;-76
2022/01/16 00:27:35;;;;;;;108.82;35.42;;;;;;;2.38;100.00;102367.31;5107284;27;20054;-74
2022/01/16 00:30:37;;;;;;;119.20;38.25;;;;;;;2.35;100.00;102370.78;5107900;27;20040;-72
2022/01/16 00:33:48;;;;;;;115.25;38.40;;;;;;;2.35;100.00;102361.94;5095643;27;20061;-72
2022/01/16 00:37:11;;;;;;;112.15;35.38;;;;;;;2.36;100.00;102371.66;5107913;27;20571;-72
2022/01/16 00:50:34;;;;;;;137.85;38.55;;;;;;;2.35;100.00;102380.41;5106197;27;20153;-72
2022/01/16 00:53:32;;;;;;;125.22;38.10;;;;;;;2.38;100.00;102362.94;5079864;27;20540;-73
2022/01/16 00:56:42;;;;;;;122.90;37.97;;;;;;;2.43;100.00;102341.97;5091264;27;20050;-73
2022/01/16 00:59:32;;;;;;;132.07;42.08;;;;;;;2.43;100.00;102356.06;5105704;27;20657;-75
2022/01/16 01:02:00;;;;;;;119.43;39.38;;;;;;;2.44;100.00;102325.31;5105166;27;20047;-75
2022/01/16 01:04:28;;;;;;;127.60;38.20;;;;;;;2.44;100.00;102320.06;5100226;27;20062;-75
2022/01/16 01:06:57;;;;;;;129.70;37.08;;;;;;;2.47;100.00;102325.41;5110158;27;20096;-75
2022/01/16 01:40:00;;;;;;;111.13;38.28;;;;;;;2.60;100.00;102332.72;5111524;27;20050;-73
2022/01/16 02:07:38;;;;;;;108.80;39.65;;;;;;;2.56;100.00;102359.88;5108445;27;20053;-73
2022/01/16 02:38:05;;;;;;;94.40;35.20;;;;;;;2.40;100.00;102363.88;5047119;28;20112;-73
2022/01/16 02:44:41;;;;;;;94.15;37.20;;;;;;;2.45;100.00;102349.91;5046672;28;20251;-74
2022/01/16 02:47:13;;;;;;;91.57;35.40;;;;;;;2.43;100.00;102352.50;5047457;28;20047;-74
2022/01/16 02:49:44;;;;;;;90.22;35.97;;;;;;;2.39;100.00;102351.53;5046389;28;20044;-74
2022/01/16 02:52:14;;;;;;;87.90;36.58;;;;;;;2.38;100.00;102341.88;5047307;28;20107;-76
2022/01/16 02:54:44;;;;;;;93.32;35.63;;;;;;;2.34;100.00;102345.25;5047604;28;20059;-75
2022/01/16 02:57:14;;;;;;;101.82;37.63;;;;;;;2.32;100.00;102335.56;5047970;28;20139;-75
2022/01/16 02:59:47;;;;;;;88.57;33.55;;;;;;;2.26;100.00;102336.25;5047551;28;20576;-76
2022/01/16 03:02:18;;;;;;;86.25;34.55;;;;;;;2.27;100.00;102331.91;5046543;28;20087;-75
2022/01/16 03:04:48;;;;;;;83.65;33.55;;;;;;;2.26;100.00;102328.34;5049637;28;20051;-75
2022/01/16 03:07:17;;;;;;;89.40;35.97;;;;;;;2.22;100.00;102323.88;5047761;28;20048;-75
2022/01/16 03:13:51;;;;;;;86.30;35.08;;;;;;;2.18;100.00;102314.09;5098479;27;20058;-73
2022/01/16 03:31:44;;;;;;;70.50;29.10;;;;;;;2.13;100.00;102294.66;5104954;27;20065;-72
2022/01/16 03:41:46;;;;;;;75.55;29.55;;;;;;;2.18;100.00;102286.03;5108102;27;20047;-73
2022/01/16 03:51:10;;;;;;;74.97;30.27;;;;;;;2.13;100.00;102278.84;5107523;27;20566;-74
2022/01/16 03:53:52;;;;;;;69.82;33.47;;;;;;;2.12;100.00;102287.63;5106063;27;20055;-76
2022/01/16 03:59:28;;;;;;;73.30;33.47;;;;;;;2.11;100.00;102281.47;5106693;27;20051;-76
2022/01/16 04:01:58;;;;;;;72.97;32.58;;;;;;;2.11;100.00;102280.56;5109668;27;20051;-76
2022/01/16 04:04:26;;;;;;;80.72;33.75;;;;;;;2.11;100.00;102285.81;5107207;27;20035;-78
2022/01/16 04:07:14;;;;;;;77.95;34.85;;;;;;;2.12;100.00;102285.88;5108796;27;20718;-74
2022/01/16 04:17:33;;;;;;;72.72;31.83;;;;;;;2.21;100.00;102282.56;5106831;27;20066;-72
2022/01/16 04:20:42;;;;;;;67.45;31.25;;;;;;;2.30;100.00;102284.53;5096891;27;21573;-74
2022/01/16 04:39:14;;;;;;;69.75;29.75;;;;;;;2.57;100.00;102269.44;5058731;28;20183;-73
2022/01/16 04:46:12;;;;;;;69.60;30.00;;;;;;;2.65;100.00;102261.69;5058787;28;20055;-73
2022/01/16 04:49:10;;;;;;;67.40;29.88;;;;;;;2.72;100.00;102262.72;5051900;28;20523;-73
2022/01/16 04:51:42;;;;;;;73.82;29.27;;;;;;;2.71;100.00;102261.84;5057866;28;20048;-76
2022/01/16 04:54:10;;;;;;;65.72;30.27;;;;;;;2.72;100.00;102263.59;5060109;28;20041;-75
2022/01/16 04:56:38;;;;;;;72.32;29.13;;;;;;;2.75;100.00;102265.44;5058825;28;20086;-75
2022/01/16 04:59:06;;;;;;;64.68;27.30;;;;;;;2.77;100.00;102269.00;5061243;28;20349;-75
2022/01/16 05:01:35;;;;;;;61.00;26.17;;;;;;;2.79;100.00;102262.91;5071519;28;20684;-75
2022/01/16 05:04:03;;;;;;;69.35;28.90;;;;;;;2.79;100.00;102262.00;5102959;27;20051;-75
2022/01/16 05:06:55;;;;;;;68.03;27.73;;;;;;;2.80;100.00;102261.16;5101274;28;20153;-75
2022/01/16 05:09:23;;;;;;;59.97;27.20;;;;;;;2.85;100.00;102259.53;5104250;27;20048;-75
2022/01/16 05:11:56;;;;;;;61.85;26.02;;;;;;;2.87;100.00;102260.44;5099127;28;20652;-75
2022/01/16 05:17:10;;;;;;;51.03;23.77;;;;;;;2.92;100.00;102260.53;5100038;27;20051;-76
2022/01/16 05:20:03;;;;;;;50.33;24.42;;;;;;;2.99;100.00;102262.44;5103061;27;20192;-76
2022/01/16 05:22:54;;;;;;;47.05;20.90;;;;;;;3.01;100.00;102262.50;5100674;28;20054;-76
2022/01/16 05:25:22;;;;;;;49.17;22.70;;;;;;;3.03;100.00;102264.31;5101216;27;20043;-76
2022/01/16 05:27:50;;;;;;;52.50;21.98;;;;;;;3.08;100.00;102262.69;5101385;27;20051;-76
2022/01/16 05:30:17;;;;;;;40.83;19.95;;;;;;;3.06;100.00;102261.72;5104388;27;20062;-75
2022/01/16 05:32:46;;;;;;;41.03;20.75;;;;;;;3.16;100.00;102265.47;5102315;28;20130;-75
2022/01/16 05:35:14;;;;;;;46.30;20.00;;;;;;;3.17;100.00;102267.25;5104355;27;20071;-76
2022/01/16 05:37:43;;;;;;;33.92;17.00;;;;;;;3.22;100.00;102260.31;5089965;28;20074;-76
2022/01/16 05:40:11;;;;;;;32.13;15.65;;;;;;;3.26;100.00;102261.28;5086787;27;20069;-76
2022/01/16 05:42:39;;;;;;;31.35;14.70;;;;;;;3.32;100.00;102267.56;5088486;28;20056;-76
2022/01/16 05:45:08;;;;;;;22.35;10.77;;;;;;;3.48;100.00;102268.75;5089194;28;20078;-76
2022/01/16 05:47:35;;;;;;;19.40;10.25;;;;;;;3.68;100.00;102266.53;5089595;28;20059;-76
2022/01/16 05:50:05;;;;;;;17.42;8.63;;;;;;;3.86;100.00;102271.25;5086984;27;20146;-76
2022/01/16 05:52:44;;;;;;;16.65;7.68;;;;;;;4.05;100.00;102268.94;5088117;28;20106;-76
2022/01/16 05:55:13;;;;;;;17.27;7.05;;;;;;;4.05;100.00;102271.56;5087693;28;20526;-76
2022/01/16 05:57:42;;;;;;;18.90;6.75;;;;;;;4.19;100.00;102287.66;5087797;28;20105;-77
2022/01/16 06:00:12;;;;;;;11.23;5.20;;;;;;;4.35;100.00;102276.50;5086716;28;20123;-76
2022/01/16 06:02:40;;;;;;;15.82;6.28;;;;;;;4.64;100.00;102276.09;5088882;28;20246;-76
2022/01/16 06:05:12;;;;;;;10.82;5.20;;;;;;;4.58;100.00;102273.34;5087258;27;20063;-76
2022/01/16 06:07:40;;;;;;;10.00;4.68;;;;;;;4.48;100.00;102269.69;5088051;28;20056;-77
2022/01/16 06:10:09;;;;;;;13.10;5.85;;;;;;;4.51;100.00;102269.69;5084713;28;20125;-76
2022/01/16 06:12:37;;;;;;;9.43;4.47;;;;;;;4.55;100.00;102270.66;5080898;28;20158;-76
2022/01/16 06:15:05;;;;;;;11.57;5.40;;;;;;;4.56;100.00;102270.66;5089020;27;20048;-76
2022/01/16 06:17:33;;;;;;;12.80;6.15;;;;;;;4.53;100.00;102281.22;5088545;28;20134;-76
2022/01/16 06:20:01;;;;;;;9.82;4.95;;;;;;;4.54;100.00;102272.41;5087931;27;20058;-76
2022/01/16 06:22:30;;;;;;;12.35;5.03;;;;;;;4.55;100.00;102283.88;5088766;28;20401;-75
2022/01/16 06:25:01;;;;;;;10.05;5.05;;;;;;;4.58;100.00;102284.81;5088191;27;20541;-76
2022/01/16 06:27:29;;;;;;;10.95;5.90;;;;;;;4.48;100.00;102283.78;5090140;28;20160;-76
2022/01/16 06:29:57;;;;;;;11.45;5.45;;;;;;;4.65;100.00;102283.16;5087630;28;20285;-76
2022/01/16 06:32:24;;;;;;;11.85;5.82;;;;;;;4.65;100.00;102285.81;5087285;28;20235;-75
2022/01/16 06:34:52;;;;;;;11.63;5.47;;;;;;;4.72;100.00;102285.03;5085493;28;20448;-76
2022/01/16 06:37:20;;;;;;;12.38;5.28;;;;;;;4.88;100.00;102288.78;5086546;28;20127;-75
2022/01/16 06:39:51;;;;;;;13.82;6.20;;;;;;;4.77;100.00;102290.41;5085989;28;20051;-76
2022/01/16 06:42:31;;;;;;;13.35;5.88;;;;;;;4.76;100.00;102302.69;5087560;28;20121;-74
2022/01/16 06:45:03;;;;;;;12.82;6.22;;;;;;;4.76;100.00;102308.00;5086177;28;20044;-75
2022/01/16 06:47:31;;;;;;;13.77;6.43;;;;;;;4.73;100.00;102304.41;5087915;28;20567;-76
2022/01/16 06:49:59;;;;;;;14.85;7.18;;;;;;;4.75;100.00;102307.97;5087278;28;20047;-76
2022/01/16 06:52:26;;;;;;;13.57;7.20;;;;;;;4.77;100.00;102314.19;5088160;28;20094;-76
2022/01/16 06:54:55;;;;;;;15.15;6.80;;;;;;;4.75;100.00;102330.03;5089302;28;20166;-76
2022/01/16 06:57:24;;;;;;;13.30;6.57;;;;;;;4.77;100.00;102327.41;5086676;28;20047;-74
2022/01/16 06:59:51;;;;;;;14.40;7.97;;;;;;;4.86;100.00;102332.84;5087987;28;20056;-75
2022/01/16 07:02:19;;;;;;;15.70;7.57;;;;;;;4.92;100.00;102327.66;5086045;28;20040;-75
2022/01/16 07:04:47;;;;;;;14.73;7.35;;;;;;;4.99;100.00;102334.81;5088026;28;20047;-75
2022/01/16 07:07:16;;;;;;;14.93;6.90;;;;;;;4.96;100.00;102336.53;5087726;28;20052;-75
2022/01/16 07:09:45;;;;;;;14.88;8.68;;;;;;;4.96;100.00;102339.16;5087060;28;20054;-75
2022/01/16 07:12:14;;;;;;;15.82;8.27;;;;;;;4.90;100.00;102345.22;5085836;27;20087;-75
2022/01/16 07:14:44;;;;;;;16.08;7.78;;;;;;;4.93;100.00;102350.56;5087954;27;20047;-75
2022/01/16 07:17:12;;;;;;;18.73;9.18;;;;;;;4.90;100.00;102355.81;5083700;27;20467;-75
2022/01/16 07:19:42;;;;;;;16.25;8.30;;;;;;;4.91;100.00;102360.25;5087917;28;20048;-76
2022/01/16 07:22:14;;;;;;;17.00;8.95;;;;;;;4.89;100.00;102369.00;5087279;28;20143;-75
2022/01/16 07:24:42;;;;;;;17.77;8.52;;;;;;;4.89;100.00;102372.56;5087454;28;20048;-75
2022/01/16 07:27:13;;;;;;;18.00;8.15;;;;;;;4.89;100.00;102375.22;5085950;28;20040;-75
2022/01/16 07:29:41;;;;;;;20.42;8.60;;;;;;;4.97;100.00;102381.53;5086275;27;20131;-75
2022/01/16 07:32:09;;;;;;;18.38;8.13;;;;;;;4.92;100.00;102384.94;5087399;27;20040;-75
2022/01/16 07:34:37;;;;;;;17.90;7.25;;;;;;;4.92;100.00;102363.78;5089040;28;20055;-75
2022/01/16 07:37:05;;;;;;;20.45;9.82;;;;;;;5.04;100.00;102374.56;5086183;28;20051;-76
2022/01/16 07:39:37;;;;;;;21.30;8.65;;;;;;;5.02;100.00;102389.50;5085115;27;20051;-75
2022/01/16 07:46:04;;;;;;;20.00;8.00;;;;;;;5.01;100.00;102385.09;5079552;28;20055;-74
2022/01/16 07:58:36;;;;;;;;;;;;;;;5.10;100.00;102408.16;5083434;28;20063;-75
2022/01/16 08:01:04;;;;;;;18.02;9.30;;;;;;;5.12;100.00;102406.44;5085807;27;20023;-77
2022/01/16 08:03:34;;;;;;;20.70;9.90;;;;;;;5.13;100.00;102403.81;5089325;27;20086;-76
2022/01/16 08:06:03;;;;;;;18.60;9.45;;;;;;;5.11;100.00;102408.19;5088186;28;20047;-75
2022/01/16 08:08:31;;;;;;;19.80;9.57;;;;;;;5.09;100.00;102407.28;5087676;28;20058;-76
2022/01/16 08:14:07;;;;;;;18.75;9.85;;;;;;;5.03;100.00;102418.63;5083615;27;20071;-74
2022/01/16 08:16:49;;;;;;;21.33;9.70;;;;;;;5.01;100.00;102414.19;5066973;28;20101;-76
2022/01/16 08:19:19;;;;;;;25.48;11.60;;;;;;;5.05;100.00;102410.72;5084589;27;20081;-75
2022/01/16 08:21:49;;;;;;;33.88;14.00;;;;;;;4.96;100.00;102400.88;5081918;28;20054;-76
2022/01/16 08:24:21;;;;;;;38.40;17.02;;;;;;;4.90;100.00;102403.44;5086543;28;20058;-76
2022/01/16 08:26:49;;;;;;;38.22;16.77;;;;;;;4.84;100.00;102398.94;5086433;28;20377;-77
2022/01/16 08:29:18;;;;;;;41.33;16.90;;;;;;;4.82;100.00;102397.16;5089621;28;20105;-74
2022/01/16 08:35:04;;;;;;;44.75;18.63;;;;;;;4.74;100.00;102399.66;5084234;28;20040;-76
2022/01/16 08:37:33;;;;;;;41.25;18.70;;;;;;;4.74;100.00;102396.13;5087404;28;20040;-76
2022/01/16 08:40:01;;;;;;;54.50;23.65;;;;;;;4.69;100.00;102398.69;5086406;28;20101;-76
2022/01/16 08:42:29;;;;;;;59.38;25.55;;;;;;;4.64;100.00;102400.34;5086403;28;20561;-76
2022/01/16 08:44:58;;;;;;;61.80;24.17;;;;;;;4.64;100.00;102403.00;5089340;28;20066;-76
2022/01/16 08:47:42;;;;;;;64.57;26.80;;;;;;;4.58;100.00;102409.09;5086592;28;20071;-74
2022/01/16 08:50:16;;;;;;;59.83;24.70;;;;;;;4.56;100.00;102405.50;5085370;28;20158;-74
2022/01/16 08:53:20;;;;;;;68.68;24.27;;;;;;;4.56;100.00;102413.44;5084353;28;20712;-74
2022/01/16 08:56:36;;;;;;;71.15;26.50;;;;;;;4.56;100.00;102412.53;5055458;28;20368;-73
2022/01/16 08:59:08;;;;;;;72.30;25.15;;;;;;;4.58;100.00;102431.97;5085304;28;20055;-77
2022/01/16 09:01:35;;;;;;;64.30;25.17;;;;;;;4.57;100.00;102430.19;5085673;28;20079;-77
2022/01/16 09:04:35;;;;;;;69.15;25.33;;;;;;;4.57;100.00;102433.72;5087409;28;20492;-73
2022/01/16 09:07:10;;;;;;;75.93;27.97;;;;;;;4.60;100.00;102441.72;5077241;28;20052;-72
2022/01/16 09:09:57;;;;;;;74.23;28.40;;;;;;;4.59;100.00;102436.41;5068294;28;20367;-74
2022/01/16 09:12:36;;;;;;;68.97;24.75;;;;;;;4.60;100.00;102439.06;5087200;28;20063;-73
2022/01/16 09:15:13;;;;;;;67.53;26.40;;;;;;;4.58;100.00;102432.88;5055925;28;20036;-76
2022/01/16 09:17:59;;;;;;;68.20;27.08;;;;;;;4.53;100.00;102433.63;5091966;28;20575;-73
2022/01/16 09:20:45;;;;;;;73.43;27.08;;;;;;;4.56;100.00;102434.56;5071613;28;20146;-75
2022/01/16 09:23:17;;;;;;;71.80;26.52;;;;;;;4.57;100.00;102443.41;5090348;28;20462;-76
2022/01/16 09:25:46;;;;;;;71.20;28.02;;;;;;;4.56;100.00;102452.19;5089321;28;20075;-77
2022/01/16 09:28:25;;;;;;;76.65;29.48;;;;;;;4.56;100.00;102457.50;5091712;28;20044;-74
2022/01/16 09:30:53;;;;;;;80.00;29.48;;;;;;;4.59;100.00;102455.78;5090581;28;20056;-77
2022/01/16 09:33:21;;;;;;;84.57;28.50;;;;;;;4.59;100.00;102461.06;5089771;28;20775;-77
2022/01/16 09:35:49;;;;;;;85.40;29.85;;;;;;;4.56;100.00;102466.31;5090223;28;20488;-75
2022/01/16 09:38:18;;;;;;;81.63;29.40;;;;;;;4.55;100.00;102469.81;5086642;28;20564;-76
2022/01/16 09:40:48;;;;;;;85.20;31.63;;;;;;;4.58;100.00;102468.97;5089347;27;20140;-76
2022/01/16 09:43:16;;;;;;;83.97;31.92;;;;;;;4.56;100.00;102474.22;5091587;28;20055;-75
2022/01/16 09:45:45;;;;;;;88.32;31.98;;;;;;;4.59;100.00;102476.94;5090510;28;20047;-75
2022/01/16 09:48:36;;;;;;;83.68;29.65;;;;;;;4.55;100.00;102479.53;5087358;28;20094;-75
2022/01/16 09:51:04;;;;;;;92.45;32.00;;;;;;;4.55;100.00;102479.53;5087600;27;20051;-76
2022/01/16 09:53:32;;;;;;;83.43;31.60;;;;;;;4.54;100.00;102489.19;5084275;28;20487;-73
2022/01/16 09:56:01;;;;;;;94.05;33.53;;;;;;;4.51;100.00;102491.75;5089280;27;20039;-74
2022/01/16 09:58:29;;;;;;;85.82;32.40;;;;;;;4.48;100.00;102486.44;5087187;28;20482;-73
2022/01/16 10:00:57;;;;;;;96.30;33.63;;;;;;;4.42;100.00;102495.13;5087000;27;20138;-73
2022/01/16 10:07:04;;;;;;;96.40;31.88;;;;;;;4.37;100.00;102504.72;5089908;28;20519;-69
2022/01/16 10:09:45;;;;;;;80.70;29.73;;;;;;;4.38;100.00;102501.22;5068203;28;20400;-69
2022/01/16 10:12:19;;;;;;;90.32;32.58;;;;;;;4.41;100.00;102497.72;5071533;28;20043;-69
2022/01/16 10:14:50;;;;;;;92.82;30.77;;;;;;;4.37;100.00;102496.78;5075686;28;20056;-71
2022/01/16 10:17:24;;;;;;;93.82;31.05;;;;;;;4.40;100.00;102504.78;5090044;28;20052;-70
2022/01/16 10:23:02;;;;;;;93.18;30.65;;;;;;;4.45;100.00;102510.16;5086484;28;20058;-69
2022/01/16 10:25:41;;;;;;;92.90;31.05;;;;;;;4.43;100.00;102507.50;5089939;27;20167;-70
2022/01/16 10:28:15;;;;;;;98.07;31.05;;;;;;;4.52;100.00;102501.50;5085020;28;20079;-73
2022/01/16 10:30:45;;;;;;;102.82;31.48;;;;;;;4.66;100.00;102514.97;5088503;28;20036;-74
2022/01/16 10:33:15;;;;;;;93.00;31.50;;;;;;;4.72;100.00;102519.50;5084276;28;20237;-71
2022/01/16 10:35:47;;;;;;;104.72;35.17;;;;;;;4.81;100.00;102523.19;5087139;27;20134;-72
2022/01/16 10:38:19;;;;;;;108.18;34.20;;;;;;;4.89;100.00;102518.06;5088901;28;20661;-70
2022/01/16 10:40:50;;;;;;;113.70;38.72;;;;;;;4.91;100.00;102518.97;5088512;28;20145;-71
2022/01/16 10:43:21;;;;;;;108.05;36.22;;;;;;;4.91;100.00;102513.69;5087911;28;20131;-70
2022/01/16 10:45:51;;;;;;;116.88;37.13;;;;;;;4.97;100.00;102508.50;5088776;28;20052;-70
2022/01/16 10:48:25;;;;;;;100.03;33.85;;;;;;;4.96;100.00;102511.13;5085924;28;20126;-70
2022/01/16 10:50:53;;;;;;;102.15;36.33;;;;;;;4.93;100.00;102511.94;5088041;28;20052;-70
2022/01/16 10:53:25;;;;;;;109.93;38.30;;;;;;;4.94;100.00;102516.38;5084451;28;20056;-70
2022/01/16 10:55:55;;;;;;;100.55;33.72;;;;;;;4.99;100.00;102508.53;5092736;28;20052;-70
2022/01/16 10:58:26;;;;;;;88.95;35.20;;;;;;;5.01;100.00;102504.16;5088002;28;20048;-71
2022/01/16 11:01:00;;;;;;;111.85;35.15;;;;;;;5.04;100.00;102505.09;5087528;28;20492;-71
2022/01/16 11:03:29;;;;;;;103.70;36.10;;;;;;;5.09;100.00;102491.97;5087293;28;20343;-70
2022/01/16 11:05:57;;;;;;;90.60;30.85;;;;;;;5.14;100.00;102495.56;5086015;28;20048;-70
2022/01/16 11:08:27;;;;;;;127.80;42.63;;;;;;;5.18;100.00;102489.44;5087944;28;20052;-69
2022/01/16 11:10:58;;;;;;;89.95;34.30;;;;;;;5.25;100.00;102506.31;5086274;28;20075;-70
2022/01/16 11:13:30;;;;;;;89.60;34.28;;;;;;;5.33;100.00;102498.50;5087066;27;20055;-70
2022/01/16 11:15:59;;;;;;;92.85;31.98;;;;;;;5.37;100.00;102497.69;5086948;28;20927;-71
2022/01/16 11:18:27;;;;;;;80.90;28.70;;;;;;;5.49;100.00;102512.88;5084668;28;20048;-71
2022/01/16 11:20:57;;;;;;;91.53;31.77;;;;;;;5.54;100.00;102517.38;5085905;27;20047;-71
2022/01/16 11:23:31;;;;;;;72.65;29.23;;;;;;;5.63;100.00;102515.75;5084713;28;20052;-72
2022/01/16 11:26:00;;;;;;;83.00;28.83;;;;;;;5.66;100.00;102502.56;5086492;27;20601;-73
2022/01/16 11:28:30;;;;;;;73.70;29.35;;;;;;;5.67;100.00;102510.53;5089046;28;20138;-73
2022/01/16 11:31:00;;;;;;;69.40;25.05;;;;;;;5.76;100.00;102523.00;5089205;28;20147;-71
2022/01/16 11:33:34;;;;;;;70.10;25.50;;;;;;;5.75;100.00;102518.56;5086527;28;20093;-73
2022/01/16 11:36:04;;;;;;;70.50;23.63;;;;;;;5.83;100.00;102508.97;5088058;28;20134;-73
2022/01/16 11:38:59;;;;;;;64.55;22.27;;;;;;;6.10;100.00;102513.81;5087935;28;20424;-71
2022/01/16 11:41:32;;;;;;;57.03;23.95;;;;;;;6.23;100.00;102500.69;5087929;28;20087;-71
2022/01/16 11:44:05;;;;;;;51.70;21.25;;;;;;;6.19;100.00;102506.84;5087075;28;20075;-71
2022/01/16 11:46:35;;;;;;;41.42;17.83;;;;;;;6.17;100.00;102496.22;5086427;28;20055;-71
2022/01/16 11:49:05;;;;;;;46.22;18.70;;;;;;;6.15;100.00;102498.84;5086848;28;20673;-72
2022/01/16 11:52:21;;;;;;;43.58;17.98;;;;;;;6.24;100.00;102499.84;5085174;28;20187;-71
2022/01/16 11:54:53;;;;;;;33.58;15.00;;;;;;;6.24;100.00;102497.19;5086861;28;20077;-73
2022/01/16 11:57:26;;;;;;;42.22;16.63;;;;;;;6.29;100.00;102498.13;5088222;28;20078;-71
2022/01/16 12:00:09;;;;;;;32.80;14.55;;;;;;;6.33;100.00;102499.94;5084699;28;20039;-71
2022/01/16 12:02:39;;;;;;;32.53;13.60;;;;;;;6.30;100.00;102502.53;5083961;28;20082;-71
2022/01/16 12:05:32;;;;;;;37.70;14.05;;;;;;;6.29;100.00;102498.13;5087503;28;20631;-72
2022/01/16 12:08:10;;;;;;;38.72;15.77;;;;;;;6.34;100.00;102507.03;5085806;28;20083;-71
2022/01/16 12:10:50;;;;;;;37.30;14.35;;;;;;;6.38;100.00;102505.31;5084137;28;20128;-71
2022/01/16 12:13:49;;;;;;;37.45;15.98;;;;;;;6.34;100.00;102507.91;5085126;27;20059;-71
2022/01/16 12:16:38;;;;;;;30.65;14.13;;;;;;;6.33;100.00;102503.50;5084245;28;20075;-71
2022/01/16 12:19:33;;;;;;;36.58;11.98;;;;;;;6.34;100.00;102502.59;5086930;28;20055;-71
2022/01/16 12:22:04;;;;;;;;;;;;;;;6.34;100.00;102510.56;5083447;28;20063;-71
2022/01/16 12:24:42;;;;;;;27.13;11.85;;;;;;;6.40;100.00;102515.03;5084606;28;19985;-71
2022/01/16 12:27:44;;;;;;;23.95;10.65;;;;;;;6.42;100.00;102513.31;5088381;28;20135;-72
2022/01/16 12:30:38;;;;;;;29.67;11.32;;;;;;;6.47;100.00;102519.56;5085126;28;20067;-71
2022/01/16 12:33:36;;;;;;;21.42;9.95;;;;;;;6.47;100.00;102514.25;5068707;28;20081;-70
2022/01/16 12:36:35;;;;;;;19.02;8.77;;;;;;;6.44;100.00;102518.66;5074021;28;20056;-70
2022/01/16 12:39:10;;;;;;;22.15;9.57;;;;;;;6.51;100.00;102517.84;5071917;28;20051;-72
2022/01/16 12:41:43;;;;;;;22.05;9.82;;;;;;;6.50;100.00;102522.25;5085590;28;20083;-72
2022/01/16 12:47:31;;;;;;;23.58;10.75;;;;;;;6.47;100.00;102513.34;5087062;28;20044;-71
2022/01/16 12:50:29;;;;;;;18.40;10.32;;;;;;;6.41;100.00;102513.31;5090246;28;20232;-72
2022/01/16 12:53:46;;;;;;;19.67;8.82;;;;;;;6.38;100.00;102506.19;5088218;27;20056;-72
2022/01/16 12:56:48;;;;;;;20.23;10.02;;;;;;;6.39;100.00;102515.06;5090340;28;20081;-72
2022/01/16 13:03:03;;;;;;;19.27;9.35;;;;;;;6.38;100.00;102511.47;5088799;28;20096;-71
2022/01/16 13:05:46;;;;;;;21.13;10.35;;;;;;;6.34;100.00;102492.00;5088573;28;20060;-71
2022/01/16 13:08:25;;;;;;;24.80;10.45;;;;;;;6.43;100.00;102493.88;5088732;27;20610;-70
2022/01/16 13:11:35;;;;;;;26.58;12.48;;;;;;;6.45;100.00;102494.81;5090381;28;20965;-71
2022/01/16 13:14:27;;;;;;;31.75;12.35;;;;;;;6.50;100.00;102502.78;5089943;27;20087;-71
2022/01/16 13:17:11;;;;;;;26.25;13.18;;;;;;;6.43;100.00;102491.22;5069945;28;20621;-73
2022/01/16 13:19:49;;;;;;;32.58;14.98;;;;;;;6.55;100.00;102498.41;5091410;27;20158;-73
2022/01/16 13:22:23;;;;;;;38.53;18.65;;;;;;;6.47;100.00;102492.13;5090880;28;20047;-73
2022/01/16 13:24:51;;;;;;;;;;;;;;;6.48;100.00;102489.50;5090499;27;20071;-72
2022/01/16 13:27:22;;;;;;;43.95;18.75;;;;;;;6.48;100.00;102492.16;5089171;27;19934;-73
2022/01/16 13:29:52;;;;;;;45.25;20.88;;;;;;;6.49;100.00;102493.06;5091290;27;20135;-73
2022/01/16 13:32:22;;;;;;;54.15;21.58;;;;;;;6.46;100.00;102500.97;5090053;28;20169;-70
2022/01/16 13:34:53;;;;;;;46.35;19.98;;;;;;;6.50;100.00;102492.19;5088580;28;20335;-72
2022/01/16 13:37:49;;;;;;;48.78;21.73;;;;;;;6.43;100.00;102496.53;5087065;28;20058;-72
2022/01/16 13:40:18;;;;;;;46.22;22.40;;;;;;;6.40;100.00;102490.28;5087697;27;20566;-70
2022/01/16 13:42:53;;;;;;;48.83;22.42;;;;;;;6.42;100.00;102499.16;5084787;28;20052;-72
2022/01/16 13:45:27;;;;;;;50.17;21.58;;;;;;;6.45;100.00;102497.44;5090272;27;20127;-72
2022/01/16 13:48:07;;;;;;;52.25;23.52;;;;;;;6.46;100.00;102499.22;5089073;28;20126;-72
2022/01/16 13:50:42;;;;;;;46.55;20.95;;;;;;;6.50;100.00;102494.81;5091965;28;20078;-72
2022/01/16 13:53:12;;;;;;;53.63;22.08;;;;;;;6.48;100.00;102499.22;5089885;27;20496;-72
2022/01/16 13:55:50;;;;;;;50.50;21.05;;;;;;;6.49;100.00;102501.03;5088451;28;20315;-72
2022/01/16 13:58:20;;;;;;;49.63;21.92;;;;;;;6.47;100.00;102502.75;5086927;28;20090;-71
2022/01/16 14:00:49;;;;;;;52.05;22.67;;;;;;;6.41;100.00;102506.22;5091835;28;20525;-72
2022/01/16 14:03:22;;;;;;;54.35;24.60;;;;;;;6.43;100.00;102508.91;5091166;28;20066;-71
2022/01/16 14:05:52;;;;;;;50.45;24.70;;;;;;;6.42;100.00;102515.06;5091477;27;20055;-71
2022/01/16 14:08:25;;;;;;;58.92;24.23;;;;;;;6.41;100.00;102521.25;5093668;28;20461;-71
2022/01/16 14:10:55;;;;;;;47.30;22.50;;;;;;;6.46;100.00;102520.44;5091087;27;20052;-71
2022/01/16 14:13:25;;;;;;;51.72;24.35;;;;;;;6.42;100.00;102521.28;5086042;28;20170;-72
2022/01/16 14:16:06;;;;;;;50.88;22.17;;;;;;;6.44;100.00;102524.84;5089658;28;20054;-71
2022/01/16 14:24:15;;;;;;;55.55;24.73;;;;;;;6.35;100.00;102520.31;5088414;28;20154;-71
2022/01/16 14:26:47;;;;;;;54.55;25.83;;;;;;;6.33;100.00;102524.72;5084559;28;20526;-70
2022/01/16 14:29:16;;;;;;;52.93;23.70;;;;;;;6.34;100.00;102537.06;5086828;27;20131;-71
2022/01/16 14:31:45;;;;;;;47.10;22.75;;;;;;;6.43;100.00;102528.34;5090595;27;20853;-71
2022/01/16 14:34:14;;;;;;;48.45;23.52;;;;;;;6.39;100.00;102530.97;5087855;28;20048;-71
2022/01/16 14:36:42;;;;;;;48.78;22.35;;;;;;;6.40;100.00;102530.06;5083913;28;20625;-70
2022/01/16 14:39:13;;;;;;;49.40;24.15;;;;;;;6.35;100.00;102537.97;5088206;28;20048;-70
2022/01/16 14:41:46;;;;;;;52.83;23.83;;;;;;;6.33;100.00;102553.88;5086007;28;20093;-71
2022/01/16 14:44:15;;;;;;;55.95;23.48;;;;;;;6.30;100.00;102556.47;5087885;28;20055;-70
2022/01/16 14:46:43;;;;;;;40.65;21.02;;;;;;;6.34;100.00;102552.09;5089390;27;20131;-71
2022/01/16 14:49:11;;;;;;;45.03;20.35;;;;;;;6.33;100.00;102561.84;5088945;28;20052;-72
2022/01/16 14:51:43;;;;;;;42.25;19.33;;;;;;;6.38;100.00;102567.16;5087595;28;20518;-70
2022/01/16 14:54:14;;;;;;;44.40;19.27;;;;;;;6.42;100.00;102573.41;5087780;28;20104;-71
2022/01/16 14:56:42;;;;;;;46.00;18.55;;;;;;;6.38;100.00;102580.44;5088259;28;20553;-71
2022/01/16 14:59:12;;;;;;;35.72;16.80;;;;;;;6.40;100.00;102577.78;5091419;28;20058;-71
2022/01/16 15:01:41;;;;;;;38.95;15.13;;;;;;;6.43;100.00;102575.19;5086767;28;20066;-71
2022/01/16 15:04:10;;;;;;;32.33;14.60;;;;;;;6.45;100.00;102582.31;5087313;28;20068;-72
2022/01/16 15:07:03;;;;;;;26.17;11.87;;;;;;;6.49;100.00;102586.78;5087711;27;20092;-71
2022/01/16 15:09:56;;;;;;;29.20;12.10;;;;;;;6.46;100.00;102586.72;5085820;27;20144;-72
2022/01/16 15:12:24;;;;;;;24.67;10.75;;;;;;;6.47;100.00;102592.91;5088256;28;20048;-73
2022/01/16 15:14:52;;;;;;;23.30;11.73;;;;;;;6.48;100.00;102592.94;5086526;28;20051;-72